createdAt,value
2017-07-26T00:02:09.793Z,8.60
2017-07-26T00:04:38.140Z,8.20
2017-07-26T00:07:06.504Z,14.43
2017-07-26T00:09:35.279Z,22.83
2017-07-26T00:12:04.104Z,11.70
2017-07-26T00:14:32.450Z,9.63
2017-07-26T00:17:01.203Z,9.33
2017-07-26T00:19:29.705Z,9.70
2017-07-26T00:21:58.070Z,13.33
2017-07-26T00:24:26.428Z,9.93
2017-07-26T00:26:54.805Z,13.23
2017-07-26T00:29:23.156Z,8.47
2017-07-26T00:31:51.511Z,9.63
2017-07-26T00:34:20.265Z,16.23
2017-07-26T00:36:48.619Z,11.20
2017-07-26T00:39:16.971Z,11.80
2017-07-26T00:41:45.899Z,12.53
2017-07-26T00:44:14.258Z,12.47
2017-07-26T00:46:42.673Z,11.53
2017-07-26T00:49:11.045Z,13.77
2017-07-26T00:51:39.391Z,11.83
2017-07-26T00:54:07.752Z,11.90
2017-07-26T00:56:36.165Z,12.87
2017-07-26T00:59:04.852Z,14.37
2017-07-26T01:01:33.251Z,12.40
2017-07-26T01:04:01.625Z,11.63
2017-07-26T01:06:29.991Z,12.30
2017-07-26T01:08:58.349Z,12.73
2017-07-26T01:11:26.716Z,12.20
2017-07-26T01:13:55.457Z,21.73
2017-07-26T01:16:23.862Z,12.97
2017-07-26T01:18:52.242Z,12.80
2017-07-26T01:21:20.604Z,12.87
2017-07-26T01:23:49.761Z,16.93
2017-07-26T01:26:18.554Z,12.90
2017-07-26T01:28:46.907Z,12.30
2017-07-26T01:31:15.657Z,13.77
2017-07-26T01:33:44.014Z,18.07
2017-07-26T01:36:12.419Z,13.30
2017-07-26T01:38:40.804Z,13.17
2017-07-26T01:41:09.172Z,12.53
2017-07-26T01:43:37.549Z,12.90
2017-07-26T01:46:05.899Z,12.90
2017-07-26T01:48:34.297Z,13.97
2017-07-26T01:51:02.697Z,12.60
2017-07-26T01:53:31.073Z,14.20
2017-07-26T01:55:59.424Z,19.60
2017-07-26T01:58:27.937Z,17.47
2017-07-26T02:00:56.455Z,25.77
2017-07-26T02:03:24.914Z,28.23
2017-07-26T02:05:53.279Z,30.80
2017-07-26T02:08:21.631Z,28.20
2017-07-26T02:10:50.023Z,33.73
2017-07-26T02:13:18.400Z,33.77
2017-07-26T02:15:46.767Z,32.77
2017-07-26T02:18:15.106Z,37.60
2017-07-26T02:20:43.487Z,74.23
2017-07-26T02:23:12.253Z,46.10
2017-07-26T02:25:40.825Z,42.87
2017-07-26T02:28:09.290Z,61.90
2017-07-26T02:30:37.646Z,65.57
2017-07-26T02:33:06.096Z,55.37
2017-07-26T02:35:34.476Z,61.70
2017-07-26T02:38:02.831Z,56.40
2017-07-26T02:40:31.205Z,57.60
2017-07-26T02:42:59.571Z,47.40
2017-07-26T02:45:27.941Z,40.37
2017-07-26T02:47:56.333Z,59.60
2017-07-26T02:50:24.688Z,65.53
2017-07-26T02:52:53.051Z,47.47
2017-07-26T02:55:21.806Z,56.23
2017-07-26T02:57:50.371Z,44.97
2017-07-26T03:00:18.716Z,56.97
2017-07-26T03:02:47.076Z,51.83
2017-07-26T03:05:15.867Z,64.00
2017-07-26T03:07:44.607Z,81.03
2017-07-26T03:10:12.996Z,46.97
2017-07-26T03:12:41.343Z,50.53
2017-07-26T03:15:09.703Z,57.77
2017-07-26T03:17:39.281Z,51.73
2017-07-26T03:20:07.919Z,45.00
2017-07-26T03:22:36.297Z,54.40
2017-07-26T03:25:04.652Z,57.23
2017-07-26T03:27:33.417Z,66.90
2017-07-26T03:30:01.763Z,70.73
2017-07-26T03:32:30.144Z,67.70
2017-07-26T03:34:58.495Z,68.93
2017-07-26T03:37:26.871Z,40.27
2017-07-26T03:39:55.218Z,39.03
2017-07-26T03:42:23.995Z,39.17
2017-07-26T03:44:52.338Z,34.87
2017-07-26T03:47:20.827Z,29.87
2017-07-26T03:49:49.190Z,29.07
2017-07-26T03:52:17.586Z,34.97
2017-07-26T03:54:45.961Z,36.90
2017-07-26T03:57:14.320Z,38.23
2017-07-26T03:59:42.697Z,37.67
2017-07-26T04:02:11.096Z,37.17
2017-07-26T04:04:39.460Z,43.67
2017-07-26T04:07:08.117Z,41.90
2017-07-26T04:09:36.891Z,25.73
2017-07-26T04:12:05.249Z,36.03
2017-07-26T04:14:33.603Z,31.97
2017-07-26T04:17:01.991Z,43.03
2017-07-26T04:19:30.477Z,28.70
2017-07-26T04:21:58.841Z,31.20
2017-07-26T04:24:27.219Z,31.80
2017-07-26T04:26:55.590Z,26.37
2017-07-26T04:29:23.949Z,33.60
2017-07-26T04:31:52.720Z,28.07
2017-07-26T04:34:21.096Z,36.23
2017-07-26T04:36:49.459Z,28.70
2017-07-26T04:39:17.824Z,26.73
2017-07-26T04:41:46.221Z,29.60
2017-07-26T04:44:14.830Z,27.97
2017-07-26T04:46:43.808Z,30.07
2017-07-26T04:49:12.170Z,29.77
2017-07-26T04:51:40.538Z,31.40
2017-07-26T04:54:08.912Z,23.70
2017-07-26T04:56:37.282Z,23.27
2017-07-26T04:59:05.653Z,21.97
2017-07-26T05:01:34.001Z,22.30
2017-07-26T05:04:02.755Z,18.57
2017-07-26T05:06:31.380Z,18.83
2017-07-26T05:08:59.765Z,19.87
2017-07-26T05:11:28.528Z,17.00
2017-07-26T05:13:57.326Z,14.23
2017-07-26T05:16:25.691Z,16.00
2017-07-26T05:18:54.062Z,18.00
2017-07-26T05:21:22.425Z,15.63
2017-07-26T05:23:51.249Z,15.83
2017-07-26T05:26:19.621Z,19.17
2017-07-26T05:28:47.976Z,21.97
2017-07-26T05:31:16.335Z,20.63
2017-07-26T05:33:44.701Z,20.93
2017-07-26T05:36:13.088Z,22.90
2017-07-26T05:38:41.451Z,24.37
2017-07-26T05:41:10.277Z,23.77
2017-07-26T05:43:38.650Z,24.93
2017-07-26T05:46:07.059Z,29.73
2017-07-26T05:48:35.435Z,29.10
2017-07-26T05:51:04.014Z,25.53
2017-07-26T05:53:32.395Z,43.17
2017-07-26T05:56:00.756Z,24.73
2017-07-26T05:58:29.124Z,37.13
2017-07-26T06:00:57.475Z,25.10
2017-07-26T06:03:26.249Z,28.50
2017-07-26T06:05:54.608Z,25.87
2017-07-26T06:08:22.991Z,26.50
2017-07-26T06:10:51.369Z,22.10
2017-07-26T06:13:19.960Z,20.23
2017-07-26T06:15:48.326Z,17.43
2017-07-26T06:18:16.681Z,18.90
2017-07-26T06:20:45.159Z,16.63
2017-07-26T06:23:13.509Z,16.03
2017-07-26T06:25:42.277Z,13.97
2017-07-26T06:28:10.656Z,19.13
2017-07-26T06:30:39.089Z,18.10
2017-07-26T06:33:07.435Z,11.50
2017-07-26T06:35:36.202Z,11.00
2017-07-26T06:38:04.605Z,10.77
2017-07-26T06:40:33.366Z,8.07
2017-07-26T06:43:01.716Z,19.53
2017-07-26T06:45:30.191Z,6.70
2017-07-26T06:47:58.543Z,4.00
2017-07-26T06:50:26.983Z,4.10
2017-07-26T06:52:55.347Z,3.87
2017-07-26T06:55:23.744Z,3.10
2017-07-26T06:57:52.318Z,2.57
2017-07-26T07:00:20.683Z,4.93
2017-07-26T07:02:49.088Z,3.37
2017-07-26T07:05:17.447Z,3.73
2017-07-26T07:07:45.800Z,2.43
2017-07-26T07:10:14.162Z,2.20
2017-07-26T07:12:43.001Z,2.40
2017-07-26T07:15:11.369Z,2.47
2017-07-26T07:17:39.745Z,1.70
2017-07-26T07:20:08.103Z,2.37
2017-07-26T07:22:36.457Z,5.83
2017-07-26T07:25:05.230Z,3.33
2017-07-26T07:27:33.714Z,4.50
2017-07-26T07:30:02.075Z,2.67
2017-07-26T07:32:30.419Z,3.63
2017-07-26T07:34:59.160Z,3.60
2017-07-26T07:37:27.499Z,4.37
2017-07-26T07:39:55.839Z,4.00
2017-07-26T07:42:24.615Z,5.67
2017-07-26T07:44:52.964Z,4.43
2017-07-26T07:47:21.325Z,4.27
2017-07-26T07:49:49.797Z,3.73
2017-07-26T07:52:18.175Z,3.20
2017-07-26T07:54:46.536Z,3.80
2017-07-26T07:57:15.068Z,3.10
2017-07-26T07:59:43.430Z,3.73
2017-07-26T08:02:11.795Z,2.80
2017-07-26T08:04:40.433Z,3.40
2017-07-26T08:07:08.851Z,3.50
2017-07-26T08:09:37.195Z,3.77
2017-07-26T08:12:05.551Z,4.83
2017-07-26T08:14:33.927Z,4.70
2017-07-26T08:17:02.273Z,4.33
2017-07-26T08:19:30.788Z,4.60
2017-07-26T08:21:59.142Z,5.70
2017-07-26T08:24:27.492Z,7.63
2017-07-26T08:26:56.251Z,12.50
2017-07-26T08:29:24.608Z,10.80
2017-07-26T08:31:53.014Z,10.83
2017-07-26T08:34:21.367Z,12.70
2017-07-26T08:36:49.719Z,13.53
2017-07-26T08:39:18.071Z,11.43
2017-07-26T08:41:46.879Z,10.90
2017-07-26T08:44:15.257Z,13.53
2017-07-26T08:46:43.845Z,14.37
2017-07-26T08:49:12.196Z,13.67
2017-07-26T08:51:40.943Z,12.37
2017-07-26T08:54:09.312Z,18.60
2017-07-26T08:56:37.681Z,11.40
2017-07-26T08:59:06.031Z,14.23
2017-07-26T09:01:34.799Z,11.37
2017-07-26T09:04:03.146Z,8.40
2017-07-26T09:06:31.534Z,9.43
2017-07-26T09:08:59.906Z,8.77
2017-07-26T09:11:28.256Z,9.13
2017-07-26T09:13:56.786Z,6.43
2017-07-26T09:16:25.138Z,9.20
2017-07-26T09:18:53.482Z,6.37
2017-07-26T09:21:22.226Z,7.93
2017-07-26T09:23:50.612Z,9.80
2017-07-26T09:26:19.065Z,14.27
2017-07-26T09:28:47.440Z,13.20
2017-07-26T09:31:15.921Z,14.83
2017-07-26T09:33:44.280Z,33.40
2017-07-26T09:36:13.003Z,21.23
2017-07-26T09:38:41.405Z,31.43
2017-07-26T09:41:09.760Z,22.03
2017-07-26T09:43:38.137Z,14.33
2017-07-26T09:46:06.523Z,13.57
2017-07-26T09:48:34.912Z,10.70
2017-07-26T09:51:03.254Z,13.57
2017-07-26T09:53:31.668Z,16.40
2017-07-26T09:56:00.038Z,17.47
2017-07-26T09:58:28.404Z,13.60
2017-07-26T10:00:56.764Z,9.53
2017-07-26T10:03:25.278Z,8.13
2017-07-26T10:05:53.624Z,6.23
2017-07-26T10:08:22.046Z,17.73
2017-07-26T10:10:50.426Z,7.33
2017-07-26T10:13:18.803Z,6.37
2017-07-26T10:15:47.177Z,14.97
2017-07-26T10:18:15.531Z,21.30
2017-07-26T10:20:43.912Z,17.90
2017-07-26T10:23:12.274Z,19.30
2017-07-26T10:25:41.059Z,18.27
2017-07-26T10:28:09.480Z,17.23
2017-07-26T10:30:37.948Z,7.80
2017-07-26T10:33:06.343Z,4.97
2017-07-26T10:35:34.947Z,6.57
2017-07-26T10:38:03.305Z,7.50
2017-07-26T10:40:31.658Z,7.83
2017-07-26T10:43:00.020Z,8.37
2017-07-26T10:45:28.382Z,19.80
2017-07-26T10:47:56.744Z,14.80
2017-07-26T10:50:25.105Z,19.20
2017-07-26T10:52:53.464Z,19.70
2017-07-26T10:55:21.849Z,11.67
2017-07-26T10:57:50.225Z,12.60
2017-07-26T11:00:18.582Z,15.23
2017-07-26T11:02:46.944Z,28.00
2017-07-26T11:05:15.299Z,18.33
2017-07-26T11:07:43.673Z,17.67
2017-07-26T11:10:12.045Z,17.73
2017-07-26T11:12:40.402Z,23.40
2017-07-26T11:15:08.785Z,17.03
2017-07-26T11:17:37.162Z,15.23
2017-07-26T11:20:05.886Z,34.30
2017-07-26T11:22:34.238Z,16.27
2017-07-26T11:25:02.714Z,48.97
2017-07-26T11:27:31.064Z,26.17
2017-07-26T11:30:00.050Z,23.13
2017-07-26T11:32:28.798Z,14.63
2017-07-26T11:34:57.146Z,18.20
2017-07-26T11:37:25.510Z,14.20
2017-07-26T11:39:53.874Z,16.30
2017-07-26T11:42:22.638Z,12.97
2017-07-26T11:44:50.982Z,11.90
2017-07-26T11:47:19.357Z,9.90
2017-07-26T11:49:47.709Z,10.70
2017-07-26T11:52:16.573Z,12.10
2017-07-26T11:54:44.926Z,9.60
2017-07-26T11:57:13.266Z,10.67
2017-07-26T11:59:41.641Z,9.40
2017-07-26T12:02:10.395Z,9.07
2017-07-26T12:04:38.766Z,11.30
2017-07-26T12:07:07.116Z,12.80
2017-07-26T12:09:35.458Z,9.33
2017-07-26T12:12:04.200Z,15.20
2017-07-26T12:14:32.554Z,9.27
2017-07-26T12:17:00.895Z,10.90
2017-07-26T12:19:29.956Z,10.83
2017-07-26T12:21:58.300Z,10.90
2017-07-26T12:24:26.668Z,14.07
2017-07-26T12:29:29.580Z,13.30
2017-07-26T12:31:57.975Z,13.63
2017-07-26T12:34:26.315Z,19.70
2017-07-26T12:36:55.205Z,13.83
2017-07-26T12:39:23.956Z,11.10
2017-07-26T12:41:52.292Z,8.90
2017-07-26T12:44:20.639Z,8.23
2017-07-26T12:46:48.993Z,8.27
2017-07-26T12:49:17.346Z,9.47
2017-07-26T12:51:45.695Z,8.00
2017-07-26T12:54:14.444Z,8.03
2017-07-26T12:56:42.783Z,8.63
2017-07-26T12:59:11.248Z,7.60
2017-07-26T13:01:39.974Z,8.03
2017-07-26T13:04:08.380Z,7.90
2017-07-26T13:06:36.744Z,8.70
2017-07-26T13:09:05.105Z,6.43
2017-07-26T13:11:33.460Z,8.10
2017-07-26T13:14:02.291Z,8.00
2017-07-26T13:16:30.726Z,9.00
2017-07-26T13:18:59.071Z,8.70
2017-07-26T13:21:27.631Z,10.70
2017-07-26T13:23:55.980Z,8.77
2017-07-26T13:26:24.320Z,14.67
2017-07-26T13:28:52.674Z,11.50
2017-07-26T13:31:21.036Z,11.00
2017-07-26T13:33:49.386Z,11.17
2017-07-26T13:36:17.743Z,12.63
2017-07-26T13:38:46.101Z,11.63
2017-07-26T13:41:14.453Z,11.50
2017-07-26T13:43:43.089Z,12.63
2017-07-26T13:46:11.430Z,12.10
2017-07-26T13:48:39.787Z,15.97
2017-07-26T13:51:08.139Z,12.97
2017-07-26T13:53:36.889Z,12.90
2017-07-26T13:56:05.268Z,16.53
2017-07-26T13:58:33.614Z,14.30
2017-07-26T14:01:02.014Z,15.10
2017-07-26T14:03:30.385Z,21.73
2017-07-26T14:05:58.755Z,12.97
2017-07-26T14:08:27.129Z,20.43
2017-07-26T14:10:55.510Z,16.90
2017-07-26T14:13:23.873Z,19.10
2017-07-26T14:15:52.252Z,16.00
2017-07-26T14:18:20.631Z,21.17
2017-07-26T14:20:49.396Z,16.90
2017-07-26T14:23:17.753Z,18.93
2017-07-26T14:25:46.096Z,24.37
2017-07-26T14:28:14.480Z,27.37
2017-07-26T14:30:42.897Z,20.27
2017-07-26T14:33:11.280Z,20.93
2017-07-26T14:35:39.639Z,17.13
2017-07-26T14:38:07.988Z,19.50
2017-07-26T14:40:36.336Z,23.33
2017-07-26T14:43:05.100Z,16.37
2017-07-26T14:45:33.445Z,18.60
2017-07-26T14:48:02.064Z,20.17
2017-07-26T14:50:30.420Z,14.77
2017-07-26T14:52:58.785Z,19.73
2017-07-26T14:55:27.171Z,15.90
2017-07-26T14:57:55.632Z,16.20
2017-07-26T15:00:24.008Z,13.60
2017-07-26T15:02:52.377Z,15.67
2017-07-26T15:05:21.136Z,18.53
2017-07-26T15:07:49.488Z,20.10
2017-07-26T15:10:17.839Z,15.43
2017-07-26T15:12:46.200Z,17.73
2017-07-26T15:15:15.168Z,17.40
2017-07-26T15:17:43.532Z,17.33
2017-07-26T15:20:11.891Z,19.83
2017-07-26T15:22:40.347Z,16.07
2017-07-26T15:25:08.715Z,15.80
2017-07-26T15:27:37.480Z,18.50
2017-07-26T15:30:06.393Z,18.03
2017-07-26T15:32:35.160Z,16.93
2017-07-26T15:35:03.498Z,16.97
2017-07-26T15:37:32.112Z,15.80
2017-07-26T15:40:00.491Z,18.97
2017-07-26T15:42:28.842Z,26.90
2017-07-26T15:44:57.212Z,15.30
2017-07-26T15:47:25.580Z,19.83
2017-07-26T15:49:53.948Z,16.00
2017-07-26T15:52:22.708Z,23.20
2017-07-26T15:54:52.654Z,20.60
2017-07-26T15:57:21.414Z,15.33
2017-07-26T15:59:49.793Z,16.50
2017-07-26T16:02:18.140Z,14.20
2017-07-26T16:04:46.744Z,18.60
2017-07-26T16:07:15.254Z,18.53
2017-07-26T16:09:43.609Z,23.50
2017-07-26T16:12:11.968Z,16.90
2017-07-26T16:14:40.345Z,13.97
2017-07-26T16:17:08.706Z,17.20
2017-07-26T16:19:37.086Z,15.50
2017-07-26T16:22:05.471Z,14.67
2017-07-26T16:24:34.115Z,15.20
2017-07-26T16:27:02.479Z,14.20
2017-07-26T16:29:30.951Z,14.83
2017-07-26T16:31:59.519Z,14.07
2017-07-26T16:34:28.147Z,16.10
2017-07-26T16:36:56.525Z,17.53
2017-07-26T16:39:25.291Z,12.57
2017-07-26T16:41:53.677Z,17.67
2017-07-26T16:44:22.044Z,15.67
2017-07-26T16:46:50.661Z,12.67
2017-07-26T16:49:19.447Z,16.83
2017-07-26T16:51:48.219Z,18.93
2017-07-26T16:54:16.775Z,21.03
2017-07-26T16:56:45.132Z,15.90
2017-07-26T16:59:13.479Z,13.10
2017-07-26T17:01:42.252Z,14.23
2017-07-26T17:04:10.619Z,24.17
2017-07-26T17:06:39.019Z,20.23
2017-07-26T17:09:07.386Z,19.60
2017-07-26T17:11:35.782Z,25.90
2017-07-26T17:14:04.139Z,20.70
2017-07-26T17:16:32.492Z,17.37
2017-07-26T17:19:00.868Z,21.10
2017-07-26T17:21:29.215Z,15.97
2017-07-26T17:23:57.959Z,17.97
2017-07-26T17:26:26.330Z,26.73
2017-07-26T17:28:54.707Z,18.40
2017-07-26T17:31:23.055Z,18.23
2017-07-26T17:33:51.433Z,20.97
2017-07-26T17:36:19.788Z,26.43
2017-07-26T17:38:48.542Z,75.07
2017-07-26T17:41:16.934Z,64.70
2017-07-26T17:43:45.289Z,49.10
2017-07-26T17:46:13.653Z,25.17
2017-07-26T17:48:41.999Z,39.60
2017-07-26T17:51:10.778Z,21.87
2017-07-26T17:53:39.138Z,33.37
2017-07-26T17:56:07.494Z,41.93
2017-07-26T17:58:35.869Z,58.27
2017-07-26T18:01:04.206Z,47.17
2017-07-26T18:03:32.975Z,46.90
2017-07-26T18:06:01.742Z,43.83
2017-07-26T18:08:30.104Z,40.60
2017-07-26T18:10:58.451Z,50.33
2017-07-26T18:13:26.971Z,58.10
2017-07-26T18:15:55.369Z,40.03
2017-07-26T18:18:23.753Z,31.90
2017-07-26T18:20:52.135Z,34.07
2017-07-26T18:23:20.491Z,31.10
2017-07-26T18:25:48.864Z,52.63
2017-07-26T18:28:17.226Z,44.00
2017-07-26T18:30:45.633Z,50.10
2017-07-26T18:33:13.992Z,57.83
2017-07-26T18:35:42.509Z,39.93
2017-07-26T18:38:10.869Z,55.57
2017-07-26T18:40:39.225Z,41.20
2017-07-26T18:43:07.578Z,33.87
2017-07-26T18:45:36.332Z,17.83
2017-07-26T18:48:04.732Z,15.43
2017-07-26T18:50:33.093Z,15.80
2017-07-26T18:53:01.472Z,16.73
2017-07-26T18:55:29.842Z,13.03
2017-07-26T18:57:58.303Z,14.20
2017-07-26T19:00:26.665Z,14.57
2017-07-26T19:02:55.032Z,15.27
2017-07-26T19:05:23.409Z,14.37
2017-07-26T19:07:52.276Z,13.23
2017-07-26T19:10:20.639Z,17.20
2017-07-26T19:12:49.030Z,23.60
2017-07-26T19:17:52.123Z,40.20
2017-07-26T19:20:20.477Z,42.83
2017-07-26T19:22:48.833Z,37.97
2017-07-26T19:25:17.595Z,35.80
2017-07-26T19:27:45.950Z,40.97
2017-07-26T19:30:14.315Z,35.40
2017-07-26T19:32:42.688Z,33.20
2017-07-26T19:35:11.084Z,31.17
2017-07-26T19:37:39.461Z,37.13
2017-07-26T19:40:08.088Z,40.43
2017-07-26T19:42:36.855Z,32.73
2017-07-26T19:45:05.214Z,30.93
2017-07-26T19:47:33.660Z,28.03
2017-07-26T19:50:02.018Z,33.27
2017-07-26T19:52:30.784Z,27.97
2017-07-26T19:54:59.134Z,38.43
2017-07-26T19:57:27.841Z,33.97
2017-07-26T19:59:56.212Z,27.30
2017-07-26T20:02:24.577Z,39.67
2017-07-26T20:04:52.959Z,32.90
2017-07-26T20:07:21.341Z,28.43
2017-07-26T20:09:49.709Z,26.60
2017-07-26T20:12:18.061Z,20.83
2017-07-26T20:14:46.819Z,35.73
2017-07-26T20:17:15.185Z,24.27
2017-07-26T20:19:43.767Z,25.33
2017-07-26T20:22:12.127Z,18.93
2017-07-26T20:24:40.494Z,17.80
2017-07-26T20:27:08.883Z,21.70
2017-07-26T20:29:37.235Z,22.13
2017-07-26T20:32:05.599Z,20.77
2017-07-26T20:34:34.532Z,21.40
2017-07-26T20:37:02.908Z,16.70
2017-07-26T20:39:31.269Z,24.70
2017-07-26T20:41:59.660Z,19.87
2017-07-26T20:44:28.020Z,20.17
2017-07-26T20:46:57.072Z,32.40
2017-07-26T20:49:25.522Z,19.17
2017-07-26T20:51:53.894Z,31.03
2017-07-26T20:54:22.263Z,15.27
2017-07-26T20:56:50.623Z,20.60
2017-07-26T20:59:19.600Z,19.03
2017-07-26T21:01:47.957Z,25.80
2017-07-26T21:04:16.331Z,18.87
2017-07-26T21:06:44.691Z,16.40
2017-07-26T21:09:13.059Z,15.47
2017-07-26T21:11:41.475Z,21.30
2017-07-26T21:14:09.844Z,23.17
2017-07-26T21:16:38.233Z,18.97
2017-07-26T21:19:06.599Z,15.17
2017-07-26T21:21:34.977Z,17.17
2017-07-26T21:24:03.451Z,17.90
2017-07-26T21:26:31.950Z,24.03
2017-07-26T21:29:00.317Z,17.97
2017-07-26T21:31:28.662Z,15.57
2017-07-26T21:33:57.437Z,20.63
2017-07-26T21:36:25.805Z,15.70
2017-07-26T21:38:54.178Z,18.10
2017-07-26T21:41:22.546Z,18.30
2017-07-26T21:43:50.911Z,17.20
2017-07-26T21:46:19.549Z,18.43
2017-07-26T21:48:48.426Z,27.93
2017-07-26T21:51:16.785Z,24.73
2017-07-26T21:53:45.155Z,14.37
2017-07-26T21:56:13.534Z,20.87
2017-07-26T21:58:41.992Z,17.90
2017-07-26T22:01:10.364Z,16.73
2017-07-26T22:03:38.721Z,19.87
2017-07-26T22:06:07.111Z,21.40
2017-07-26T22:08:35.471Z,14.80
2017-07-26T22:11:04.284Z,14.83
2017-07-26T22:13:32.634Z,14.93
2017-07-26T22:16:01.103Z,19.77
2017-07-26T22:18:29.453Z,16.50
2017-07-26T22:20:57.860Z,27.37
2017-07-26T22:23:26.240Z,17.90
2017-07-26T22:25:54.599Z,15.03
2017-07-26T22:28:22.978Z,13.53
2017-07-26T22:30:51.332Z,17.43
2017-07-26T22:33:19.752Z,14.10
2017-07-26T22:35:48.241Z,15.30
2017-07-26T22:38:16.601Z,23.43
2017-07-26T22:40:44.952Z,17.27
2017-07-26T22:43:13.334Z,15.47
2017-07-26T22:45:41.717Z,24.70
2017-07-26T22:48:10.080Z,20.33
2017-07-26T22:50:38.496Z,20.53
2017-07-26T22:53:07.295Z,16.23
2017-07-26T22:55:35.657Z,18.97
2017-07-26T22:58:04.014Z,15.23
2017-07-26T23:00:32.384Z,16.27
2017-07-26T23:03:00.754Z,19.47
2017-07-26T23:05:29.528Z,19.17
2017-07-26T23:07:58.324Z,16.37
2017-07-26T23:10:27.125Z,14.97
2017-07-26T23:12:55.873Z,19.00
2017-07-26T23:15:24.240Z,15.67
2017-07-26T23:17:52.602Z,21.43
2017-07-26T23:20:21.015Z,15.17
2017-07-26T23:22:49.382Z,13.70
2017-07-26T23:25:17.743Z,18.23
2017-07-26T23:27:46.092Z,19.07
2017-07-26T23:30:14.451Z,17.10
2017-07-26T23:32:42.813Z,22.90
2017-07-26T23:35:11.162Z,16.20
2017-07-26T23:37:39.550Z,18.17
2017-07-26T23:40:08.854Z,19.50
2017-07-26T23:42:37.207Z,18.33
2017-07-26T23:45:05.588Z,20.20
2017-07-26T23:47:34.198Z,24.63
2017-07-26T23:50:02.579Z,18.77
2017-07-26T23:52:30.976Z,27.90
2017-07-26T23:54:59.345Z,22.13
2017-07-26T23:57:27.739Z,16.47
2017-07-26T23:59:56.113Z,23.17
